YVR weather

Vancouver International Airport
Vancouver, British Columbia, Canada

Public forecast

Using degrees Celsius for public forecast. Weather courtesy of forecast.io.

Current aviation weather report (METAR) for Vancouver International Airport

Retrieved 2020/01/23 10:08 UTC (29 minutes ago):

CYVR 231008Z 09012KT 10SM -RA OVC014 07/06 A2990 RMK SC8 SLP127

Aviation forecast (TAF) for Vancouver International Airport

Retrieved 2020/01/23 09:59 UTC (38 minutes ago):

TAF CYVR 230854Z 2309/2412 08008KT 6SM -RA BR SCT005 OVC020 TEMPO 2309/2310 3SM -RA -DZ BR BKN005 FM231000 10012G22KT P6SM -RA SCT004 OVC012 TEMPO 2310/2318 2SM -RA BR BKN004 FM231800 12015G25KT P6SM -RA BKN008 OVC015 TEMPO 2318/2321 P6SM NSW SCT015 BKN030 FM232100 13015G25KT P6SM SCT015 BKN030 TEMPO 2321/2405 5SM -SHRA BR SCT006 BKN012 BECMG 2401/2403 10008KT FM240500 10008KT P6SM SCT003 SCT012 OVC020 TEMPO 2405/2412 2SM -SHRA BR BKN003 OVC012 BECMG 2407/2409 12008KT RMK NXT FCST BY 231200Z